Time;durP1;ratioP1;P1;durP2;ratioP2;P2;SDS_P1;SDS_P2;PMS_P1;PMS_P2;Temp;Humidity;BMP_temperature;BMP_pressure;BME280_temperature;BME280_humidity;BME280_pressure;Samples;Min_cycle;Max_cycle;Signal;HPM_P1;HPM_P2
2024/03/11 00:00:57;;;;;;;3.80;1.88;;;12.60;59.50;;;;;;6308625;28;20157;-75
2024/03/11 00:03:58;;;;;;;8.23;2.55;;;12.60;59.60;;;;;;6309889;28;20020;-73
2024/03/11 00:07:04;;;;;;;5.07;2.10;;;12.60;59.70;;;;;;6306374;28;20024;-72
2024/03/11 00:10:11;;;;;;;4.60;2.03;;;12.60;59.70;;;;;;6306230;28;20035;-72
2024/03/11 00:13:16;;;;;;;3.03;1.60;;;12.60;59.70;;;;;;6309953;28;20028;-74
2024/03/11 00:16:18;;;;;;;4.40;2.60;;;12.60;59.70;;;;;;6293680;28;20031;-75
2024/03/11 00:19:20;;;;;;;6.47;2.65;;;12.60;59.70;;;;;;6307637;28;20028;-73
2024/03/11 00:22:21;;;;;;;7.95;2.78;;;12.50;59.80;;;;;;6307778;28;20436;-74
2024/03/11 00:25:22;;;;;;;6.53;2.30;;;12.50;59.80;;;;;;6307954;28;20032;-73
2024/03/11 00:28:23;;;;;;;4.13;2.03;;;12.50;59.90;;;;;;6276004;28;20172;-74
2024/03/11 00:31:29;;;;;;;4.95;2.05;;;12.40;59.90;;;;;;6305662;28;20050;-74
2024/03/11 00:34:32;;;;;;;4.72;1.90;;;12.40;60.10;;;;;;6308309;28;20590;-73
2024/03/11 00:37:33;;;;;;;5.72;2.15;;;12.30;60.30;;;;;;6308141;28;20023;-73
2024/03/11 00:40:34;;;;;;;5.32;1.88;;;12.20;60.30;;;;;;6307500;28;20110;-73
2024/03/11 00:43:35;;;;;;;4.30;2.00;;;12.20;60.70;;;;;;6308884;28;20040;-73
2024/03/11 00:46:38;;;;;;;3.97;2.00;;;12.10;60.90;;;;;;6307763;28;20047;-73
2024/03/11 00:49:39;;;;;;;7.55;2.60;;;12.10;61.10;;;;;;6307731;28;20028;-72
2024/03/11 00:52:41;;;;;;;9.05;3.13;;;12.00;61.20;;;;;;6303318;28;20020;-75
2024/03/11 00:55:43;;;;;;;4.63;2.25;;;12.00;61.40;;;;;;6279068;28;20464;-74
2024/03/11 00:58:44;;;;;;;3.60;2.05;;;12.00;61.60;;;;;;6291337;28;20036;-74
2024/03/11 01:01:45;;;;;;;8.27;3.00;;;12.00;61.70;;;;;;6307557;28;20035;-72
2024/03/11 01:04:47;;;;;;;8.85;3.33;;;12.00;61.80;;;;;;6289930;28;20055;-74
2024/03/11 01:07:48;;;;;;;8.00;2.47;;;11.90;62.60;;;;;;6300498;28;20031;-73
2024/03/11 01:10:51;;;;;;;3.30;1.65;;;11.90;61.80;;;;;;6306899;28;20088;-73
2024/03/11 01:13:53;;;;;;;2.97;1.85;;;11.90;61.90;;;;;;6307565;28;20008;-73
2024/03/11 01:16:54;;;;;;;10.27;2.40;;;11.80;61.90;;;;;;6290810;28;20043;-73
2024/03/11 01:19:55;;;;;;;4.88;1.88;;;11.80;62.00;;;;;;6308086;28;20063;-73
2024/03/11 01:22:56;;;;;;;8.63;2.35;;;11.80;62.10;;;;;;6297453;28;20434;-73
2024/03/11 01:25:57;;;;;;;4.60;1.60;;;11.80;62.10;;;;;;6280102;28;20089;-74
2024/03/11 01:28:58;;;;;;;3.80;1.73;;;11.80;62.10;;;;;;6289888;28;20183;-74
2024/03/11 01:31:58;;;;;;;5.10;2.00;;;11.80;62.00;;;;;;6289685;28;20030;-73
2024/03/11 01:35:06;;;;;;;4.13;1.58;;;11.70;62.00;;;;;;6306906;28;20107;-72
2024/03/11 01:38:08;;;;;;;5.90;1.90;;;11.70;62.10;;;;;;6309321;28;20012;-73
2024/03/11 01:41:11;;;;;;;2.35;1.23;;;11.60;61.90;;;;;;6307022;28;20047;-76
2024/03/11 01:44:17;;;;;;;3.22;2.15;;;11.50;62.10;;;;;;6308433;28;20535;-73
2024/03/11 01:47:22;;;;;;;4.65;1.60;;;11.50;62.30;;;;;;6293070;28;20485;-73
2024/03/11 01:50:23;;;;;;;2.05;1.52;;;11.40;62.40;;;;;;6303114;28;20079;-73
2024/03/11 01:53:24;;;;;;;4.72;1.75;;;11.40;62.50;;;;;;6306434;28;20043;-74
2024/03/11 01:56:28;;;;;;;3.83;1.20;;;11.40;62.70;;;;;;6304927;28;20048;-73
2024/03/11 01:59:34;;;;;;;6.05;1.65;;;11.40;62.60;;;;;;6305768;28;20107;-73
2024/03/11 02:02:38;;;;;;;3.35;1.98;;;11.30;62.60;;;;;;6290211;28;20043;-74
2024/03/11 02:05:42;;;;;;;2.20;1.50;;;11.30;62.60;;;;;;6306963;28;20024;-73
2024/03/11 02:08:43;;;;;;;4.93;1.88;;;11.30;62.50;;;;;;6304939;28;20035;-74
2024/03/11 02:11:44;;;;;;;4.50;2.30;;;11.40;62.40;;;;;;6301779;28;20008;-74
2024/03/11 02:14:46;;;;;;;5.07;2.03;;;11.40;62.40;;;;;;6288820;28;20361;-73
2024/03/11 02:17:49;;;;;;;7.00;2.15;;;11.30;62.40;;;;;;6289179;28;20024;-73
2024/03/11 02:21:29;;;;;;;6.38;1.77;;;11.30;62.50;;;;;;6306152;28;20019;-74
2024/03/11 02:24:32;;;;;;;4.93;2.00;;;11.30;62.60;;;;;;6306262;28;20090;-74
2024/03/11 02:27:32;;;;;;;2.90;2.00;;;11.20;62.70;;;;;;6307666;28;20614;-75
2024/03/11 02:30:33;;;;;;;2.90;1.70;;;11.10;62.80;;;;;;6287434;28;20054;-75
2024/03/11 02:33:35;;;;;;;4.35;1.77;;;11.10;62.90;;;;;;6305307;28;20111;-72
2024/03/11 02:36:37;;;;;;;4.30;1.70;;;11.10;63.00;;;;;;6305630;28;20063;-74
2024/03/11 02:39:39;;;;;;;3.38;1.77;;;11.00;63.10;;;;;;6304237;28;20444;-73
2024/03/11 02:42:42;;;;;;;3.30;1.70;;;11.00;63.30;;;;;;6283914;28;20023;-74
2024/03/11 02:45:45;;;;;;;10.57;2.13;;;11.00;63.30;;;;;;6288543;28;20020;-74
2024/03/11 02:48:45;;;;;;;4.43;1.80;;;10.90;63.30;;;;;;6305116;28;20036;-74
2024/03/11 02:51:47;;;;;;;2.85;1.60;;;11.00;63.50;;;;;;6304479;28;20371;-73
2024/03/11 02:54:53;;;;;;;4.20;2.10;;;10.90;63.30;;;;;;6307720;28;20016;-73
2024/03/11 02:57:53;;;;;;;8.57;2.38;;;10.90;63.30;;;;;;6307887;28;20012;-73
2024/03/11 03:00:56;;;;;;;3.05;1.92;;;10.90;63.20;;;;;;6288520;28;20138;-73
2024/03/11 03:03:57;;;;;;;4.30;1.90;;;11.00;63.30;;;;;;6305052;28;20085;-75
2024/03/11 03:06:58;;;;;;;3.10;1.92;;;11.00;63.20;;;;;;6307185;28;20107;-73
2024/03/11 03:09:59;;;;;;;5.68;1.58;;;11.00;63.10;;;;;;6305125;28;20060;-74
2024/03/11 03:13:00;;;;;;;8.40;3.15;;;10.90;63.10;;;;;;6304349;28;20026;-74
2024/03/11 03:16:01;;;;;;;3.42;1.52;;;10.80;63.20;;;;;;6292217;28;20028;-73
2024/03/11 03:19:02;;;;;;;2.97;1.75;;;10.80;63.40;;;;;;6292513;28;20040;-73
2024/03/11 03:22:03;;;;;;;2.42;1.75;;;10.80;63.50;;;;;;6293137;28;20043;-73
2024/03/11 03:25:06;;;;;;;5.70;1.95;;;10.70;63.60;;;;;;6285684;28;20130;-74
2024/03/11 03:28:07;;;;;;;2.78;2.00;;;10.70;63.70;;;;;;6309189;28;20809;-73
2024/03/11 03:31:09;;;;;;;3.53;2.15;;;10.60;63.70;;;;;;6310919;28;20028;-73
2024/03/11 03:34:10;;;;;;;6.55;2.15;;;10.60;63.80;;;;;;6308800;28;20767;-74
2024/03/11 03:37:13;;;;;;;5.45;1.98;;;10.60;63.80;;;;;;6309957;28;20759;-73
2024/03/11 03:40:17;;;;;;;3.65;1.80;;;10.60;63.90;;;;;;6309515;28;20028;-75
2024/03/11 03:43:18;;;;;;;4.00;2.20;;;10.60;63.90;;;;;;6310777;28;20024;-75
2024/03/11 03:46:48;;;;;;;2.00;1.63;;;10.60;63.90;;;;;;6308410;28;20500;-73
2024/03/11 03:49:50;;;;;;;8.88;3.20;;;10.60;64.00;;;;;;6308924;28;20028;-73
2024/03/11 03:52:51;;;;;;;5.22;2.38;;;10.50;64.10;;;;;;6291658;28;21420;-73
2024/03/11 03:55:53;;;;;;;3.92;1.67;;;10.50;64.20;;;;;;6308563;28;20117;-74
2024/03/11 03:58:55;;;;;;;9.30;2.38;;;10.40;64.20;;;;;;6292757;28;20486;-74
2024/03/11 04:01:56;;;;;;;3.33;1.85;;;10.40;64.40;;;;;;6291908;28;20172;-75
2024/03/11 04:05:02;;;;;;;5.20;1.45;;;10.40;64.50;;;;;;6291172;28;20039;-74
2024/03/11 04:08:04;;;;;;;4.95;2.22;;;10.40;64.50;;;;;;6308441;28;20024;-73
2024/03/11 04:11:05;;;;;;;5.78;2.05;;;10.40;64.60;;;;;;6291216;28;20060;-74
2024/03/11 04:14:29;;;;;;;2.10;1.38;;;10.40;64.50;;;;;;6308264;28;20020;-73
2024/03/11 04:17:32;;;;;;;8.52;1.50;;;10.50;64.60;;;;;;6275321;28;20035;-73
2024/03/11 04:20:34;;;;;;;2.47;1.70;;;10.50;64.40;;;;;;6292179;28;20032;-73
2024/03/11 04:23:37;;;;;;;7.43;2.42;;;10.50;64.30;;;;;;6308739;28;20055;-73
2024/03/11 04:26:38;;;;;;;4.45;1.70;;;10.60;64.10;;;;;;6307158;28;20152;-73
2024/03/11 04:29:39;;;;;;;5.15;2.40;;;10.70;64.10;;;;;;6289724;28;20388;-73
2024/03/11 04:32:57;;;;;;;4.38;2.03;;;10.80;64.00;;;;;;6308317;28;20047;-73
2024/03/11 04:35:58;;;;;;;3.35;1.80;;;10.80;63.70;;;;;;6275669;28;20035;-73
2024/03/11 04:39:04;;;;;;;5.60;2.33;;;10.90;63.60;;;;;;6297634;28;20066;-73
2024/03/11 04:42:05;;;;;;;3.13;2.03;;;10.90;63.30;;;;;;6308626;28;20036;-74
2024/03/11 04:45:07;;;;;;;3.78;1.90;;;10.90;63.30;;;;;;6291593;28;20785;-75
2024/03/11 04:48:09;;;;;;;4.60;2.13;;;11.00;63.10;;;;;;6308285;28;20110;-74
2024/03/11 04:51:10;;;;;;;3.45;2.00;;;11.00;62.90;;;;;;6308496;28;20028;-74
2024/03/11 04:54:11;;;;;;;3.42;2.30;;;11.00;62.90;;;;;;6309469;28;20443;-73
2024/03/11 04:57:12;;;;;;;2.00;1.20;;;11.10;63.00;;;;;;6307741;28;20024;-73
2024/03/11 05:00:14;;;;;;;5.28;1.92;;;11.10;62.90;;;;;;6308189;28;20012;-74
2024/03/11 05:03:18;;;;;;;3.03;1.70;;;11.20;62.70;;;;;;6308917;28;20020;-74
2024/03/11 05:06:21;;;;;;;3.28;1.90;;;11.20;62.50;;;;;;6309521;28;20473;-74
2024/03/11 05:09:22;;;;;;;3.10;1.73;;;11.20;62.50;;;;;;6307625;28;20384;-73
2024/03/11 05:12:23;;;;;;;4.53;1.98;;;11.10;62.30;;;;;;6306065;28;20024;-75
2024/03/11 05:15:28;;;;;;;4.10;2.00;;;11.20;62.30;;;;;;6302053;28;20020;-74
2024/03/11 05:18:31;;;;;;;5.93;2.80;;;11.10;62.20;;;;;;6309499;28;20020;-73
2024/03/11 05:21:32;;;;;;;3.45;1.52;;;11.10;62.30;;;;;;6308934;28;20456;-74
2024/03/11 05:24:37;;;;;;;4.00;1.98;;;11.10;62.30;;;;;;6305351;28;20043;-74
2024/03/11 05:27:39;;;;;;;3.53;1.60;;;11.00;62.40;;;;;;6290772;28;20066;-74
2024/03/11 05:30:40;;;;;;;4.47;1.75;;;11.00;62.50;;;;;;6306435;28;20126;-75
2024/03/11 05:33:42;;;;;;;2.65;1.27;;;11.00;62.60;;;;;;6306717;28;20035;-73
2024/03/11 05:36:42;;;;;;;6.93;2.03;;;11.00;62.40;;;;;;6299837;28;20021;-72
2024/03/11 05:39:44;;;;;;;3.85;1.83;;;11.00;62.30;;;;;;6308533;28;20027;-74
2024/03/11 05:42:48;;;;;;;3.33;1.40;;;11.00;62.10;;;;;;6306762;28;20031;-74
2024/03/11 05:45:49;;;;;;;2.78;1.35;;;11.00;62.00;;;;;;6286311;28;20030;-73
2024/03/11 05:48:51;;;;;;;4.05;1.75;;;10.90;62.00;;;;;;6286656;28;20035;-73
2024/03/11 05:51:52;;;;;;;3.00;1.70;;;10.80;62.10;;;;;;6289956;28;20012;-72
2024/03/11 05:54:53;;;;;;;1.38;1.20;;;10.70;62.20;;;;;;6306367;28;20021;-72
2024/03/11 05:57:55;;;;;;;3.13;1.63;;;10.70;62.40;;;;;;6304335;28;20545;-74
2024/03/11 06:00:56;;;;;;;3.90;1.88;;;10.70;62.50;;;;;;6306739;28;20023;-74
2024/03/11 06:03:57;;;;;;;3.20;2.03;;;10.70;62.70;;;;;;6290216;28;20062;-75
2024/03/11 06:06:58;;;;;;;5.18;2.15;;;10.70;62.70;;;;;;6297463;28;20016;-75
2024/03/11 06:10:00;;;;;;;2.38;1.77;;;10.70;62.70;;;;;;6291889;28;20028;-74
2024/03/11 06:13:01;;;;;;;2.72;1.70;;;10.80;62.70;;;;;;6307053;28;20086;-71
2024/03/11 06:16:07;;;;;;;4.22;1.95;;;10.80;62.50;;;;;;6306819;28;20031;-74
2024/03/11 06:19:16;;;;;;;2.88;1.65;;;10.80;62.40;;;;;;6285432;28;20150;-72
2024/03/11 06:22:17;;;;;;;7.38;1.98;;;10.90;62.40;;;;;;6279013;28;20455;-73
2024/03/11 06:25:20;;;;;;;3.47;2.10;;;10.90;62.20;;;;;;6308333;28;20012;-74
2024/03/11 06:28:23;;;;;;;2.22;1.90;;;10.90;62.00;;;;;;6298415;28;20058;-74
2024/03/11 06:31:23;;;;;;;4.88;2.28;;;10.90;61.90;;;;;;6306034;28;20028;-74
2024/03/11 06:34:26;;;;;;;2.25;1.90;;;11.00;61.90;;;;;;6305721;28;20020;-73
2024/03/11 06:37:27;;;;;;;11.98;3.08;;;11.00;61.90;;;;;;6298729;28;20595;-75
2024/03/11 06:40:31;;;;;;;8.88;2.10;;;11.00;61.80;;;;;;6286856;28;20112;-74
2024/03/11 06:43:32;;;;;;;4.97;2.45;;;11.10;61.80;;;;;;6305881;28;20032;-74
2024/03/11 06:46:34;;;;;;;10.95;2.42;;;11.10;61.70;;;;;;6307934;28;20069;-73
2024/03/11 06:49:35;;;;;;;7.32;1.83;;;11.00;61.50;;;;;;6302170;28;20024;-74
2024/03/11 06:52:35;;;;;;;2.63;1.50;;;11.00;62.40;;;;;;6312514;28;20027;-74
2024/03/11 06:55:38;;;;;;;3.53;1.80;;;10.90;61.70;;;;;;6293604;28;20515;-73
2024/03/11 06:58:39;;;;;;;4.28;1.88;;;10.90;61.70;;;;;;6310931;28;20043;-74
2024/03/11 07:01:41;;;;;;;4.15;2.03;;;10.90;61.80;;;;;;6293032;28;20068;-74
2024/03/11 07:04:47;;;;;;;3.13;1.70;;;10.80;61.80;;;;;;6293869;28;20074;-73
2024/03/11 07:07:47;;;;;;;2.72;1.90;;;10.90;61.90;;;;;;6306656;28;20016;-73
2024/03/11 07:10:50;;;;;;;4.32;2.05;;;10.90;61.70;;;;;;6309780;28;20039;-72
2024/03/11 07:13:51;;;;;;;7.93;1.70;;;10.90;61.80;;;;;;6310172;28;20091;-76
2024/03/11 07:16:53;;;;;;;3.03;1.48;;;10.90;61.80;;;;;;6310438;28;20024;-73
2024/03/11 07:19:54;;;;;;;4.20;1.60;;;11.00;61.80;;;;;;6281882;28;20030;-73
2024/03/11 07:22:54;;;;;;;2.78;1.90;;;11.10;61.70;;;;;;6309681;28;20031;-74
2024/03/11 07:26:40;;;;;;;2.45;1.73;;;11.10;61.50;;;;;;6309749;28;20103;-74
2024/03/11 07:29:42;;;;;;;7.95;1.63;;;11.20;61.40;;;;;;6308831;28;20028;-73
2024/03/11 07:32:43;;;;;;;2.42;1.58;;;11.30;61.40;;;;;;6308940;28;20020;-73
2024/03/11 07:35:44;;;;;;;4.45;1.80;;;11.30;61.20;;;;;;6309645;28;20016;-75
2024/03/11 07:38:46;;;;;;;3.80;2.15;;;11.40;60.70;;;;;;6309695;28;20118;-73
2024/03/11 07:41:47;;;;;;;1.90;1.35;;;11.40;60.40;;;;;;6311364;28;20097;-73
2024/03/11 07:44:51;;;;;;;2.22;1.60;;;11.40;60.40;;;;;;6292456;28;20140;-76
2024/03/11 07:47:55;;;;;;;2.63;1.73;;;11.40;60.40;;;;;;6309714;28;20077;-73
2024/03/11 07:50:56;;;;;;;3.92;1.60;;;11.50;60.40;;;;;;6309414;28;20051;-73
2024/03/11 07:53:56;;;;;;;3.28;1.92;;;11.60;60.20;;;;;;6308556;28;20024;-72
2024/03/11 07:57:00;;;;;;;4.03;2.15;;;11.70;59.90;;;;;;6309728;28;20106;-73
2024/03/11 08:00:51;;;;;;;4.32;1.73;;;11.80;59.70;;;;;;6309147;28;20460;-73
2024/03/11 08:03:27;;;;;;;4.72;2.17;;;11.90;59.50;;;;;;6297886;28;20084;-73
2024/03/11 08:07:12;;;;;;;8.77;1.92;;;12.00;59.50;;;;;;6308353;28;20031;-73
2024/03/11 08:10:14;;;;;;;3.33;2.08;;;12.20;58.90;;;;;;6330134;28;20085;-72
2024/03/11 08:13:15;;;;;;;5.43;2.15;;;12.20;58.50;;;;;;6292908;28;20035;-73
2024/03/11 08:16:16;;;;;;;2.70;1.80;;;12.40;58.50;;;;;;6307159;28;20128;-73
2024/03/11 08:23:42;;;;;;;12.32;2.20;;;12.70;58.20;;;;;;6305114;28;20020;-74
2024/03/11 08:26:45;;;;;;;4.30;1.77;;;12.90;57.60;;;;;;6307696;28;20027;-73
2024/03/11 08:29:48;;;;;;;4.05;1.70;;;13.10;57.30;;;;;;6309388;28;20138;-74
2024/03/11 08:32:51;;;;;;;8.73;1.73;;;13.30;56.80;;;;;;6309620;28;20020;-73
2024/03/11 08:35:53;;;;;;;2.95;1.95;;;13.50;56.10;;;;;;6307342;28;20016;-73
2024/03/11 08:38:54;;;;;;;2.40;1.42;;;13.70;56.10;;;;;;6308189;28;20043;-74
2024/03/11 08:41:57;;;;;;;2.60;1.42;;;14.10;55.80;;;;;;6291236;28;20031;-74
2024/03/11 08:44:58;;;;;;;2.63;1.42;;;14.20;55.30;;;;;;6309780;28;20020;-73
2024/03/11 08:47:59;;;;;;;2.20;1.27;;;14.60;54.70;;;;;;6308249;28;20020;-74
2024/03/11 08:51:01;;;;;;;3.33;1.60;;;14.80;53.80;;;;;;6308632;28;20039;-74
2024/03/11 08:54:03;;;;;;;2.95;1.40;;;15.00;53.30;;;;;;6274669;28;20423;-74
2024/03/11 08:57:08;;;;;;;5.50;1.83;;;15.00;52.80;;;;;;6308144;28;20130;-73
2024/03/11 09:04:32;;;;;;;2.20;1.33;;;15.10;52.50;;;;;;6300207;28;20139;-73
2024/03/11 09:07:33;;;;;;;2.88;1.50;;;15.20;52.30;;;;;;6308481;28;20106;-73
2024/03/11 09:10:34;;;;;;;2.92;1.70;;;15.30;52.00;;;;;;6307205;28;20032;-73
2024/03/11 09:13:35;;;;;;;3.50;1.50;;;15.30;51.90;;;;;;6306502;28;20016;-74
2024/03/11 09:16:38;;;;;;;5.97;2.25;;;15.20;51.80;;;;;;6308358;28;20120;-74
2024/03/11 09:19:46;;;;;;;5.47;1.90;;;15.10;51.90;;;;;;6306396;28;20372;-73
2024/03/11 09:22:55;;;;;;;5.78;2.08;;;15.00;51.90;;;;;;6291337;28;20031;-73
2024/03/11 09:26:01;;;;;;;5.80;1.92;;;15.00;52.20;;;;;;6307582;28;20445;-75
2024/03/11 09:29:03;;;;;;;5.93;2.40;;;14.90;52.30;;;;;;6309348;28;20455;-75
2024/03/11 09:32:05;;;;;;;7.47;2.42;;;14.80;52.30;;;;;;6290935;28;20138;-74
2024/03/11 09:35:06;;;;;;;5.25;2.42;;;14.70;52.40;;;;;;6308689;28;20493;-74
2024/03/11 09:38:08;;;;;;;10.68;2.83;;;14.50;52.40;;;;;;6308767;28;20036;-74
2024/03/11 09:41:15;;;;;;;9.25;2.95;;;14.40;52.70;;;;;;6283683;28;20024;-75
2024/03/11 09:44:18;;;;;;;14.90;2.72;;;14.40;53.00;;;;;;6300482;28;20031;-74
2024/03/11 09:47:21;;;;;;;5.53;2.33;;;14.30;53.10;;;;;;6307006;28;20123;-74
2024/03/11 09:50:26;;;;;;;9.20;2.40;;;14.20;53.20;;;;;;6306662;28;20086;-74
2024/03/11 09:53:28;;;;;;;6.57;2.63;;;14.20;53.40;;;;;;6288213;28;20644;-73
2024/03/11 09:56:29;;;;;;;4.75;2.38;;;14.20;53.30;;;;;;6305844;28;20111;-73
2024/03/11 09:59:32;;;;;;;14.20;2.95;;;14.10;53.50;;;;;;6307985;28;20171;-74
2024/03/11 10:02:34;;;;;;;4.60;2.78;;;14.00;53.60;;;;;;6299733;28;20051;-73
2024/03/11 10:05:35;;;;;;;3.28;1.70;;;14.00;53.70;;;;;;6281886;28;20048;-74
2024/03/11 10:08:37;;;;;;;9.80;2.35;;;13.90;54.00;;;;;;6286856;28;20016;-73
2024/03/11 10:11:38;;;;;;;8.20;2.53;;;13.80;54.20;;;;;;6308713;28;20035;-74
2024/03/11 10:14:40;;;;;;;11.60;2.47;;;13.70;54.50;;;;;;6294806;28;20024;-73
2024/03/11 10:17:43;;;;;;;6.43;2.30;;;13.80;54.50;;;;;;6298244;28;20067;-72
2024/03/11 10:24:44;;;;;;;11.65;2.63;;;14.10;54.40;;;;;;6306295;28;20020;-71
2024/03/11 10:27:47;;;;;;;8.60;2.58;;;14.30;54.30;;;;;;6289759;28;20492;-73
2024/03/11 10:30:50;;;;;;;7.38;1.98;;;14.50;54.10;;;;;;6306267;28;20032;-73
2024/03/11 10:33:54;;;;;;;6.28;2.60;;;14.90;53.80;;;;;;6308191;28;20098;-74
2024/03/11 10:36:59;;;;;;;5.28;1.67;;;15.20;53.30;;;;;;6290403;28;20040;-73
2024/03/11 10:40:10;;;;;;;8.40;1.95;;;15.60;52.70;;;;;;6300174;28;20515;-73
2024/03/11 10:43:20;;;;;;;6.72;2.22;;;16.10;52.10;;;;;;6290527;28;20031;-74
2024/03/11 10:46:28;;;;;;;4.70;1.50;;;16.40;51.40;;;;;;6301356;28;20035;-73
2024/03/11 10:49:29;;;;;;;5.05;1.38;;;16.60;50.90;;;;;;6305725;28;20032;-74
2024/03/11 10:52:34;;;;;;;2.22;1.05;;;16.60;50.80;;;;;;6305348;28;20030;-73
2024/03/11 10:55:38;;;;;;;2.83;1.55;;;16.60;50.70;;;;;;6303904;28;20024;-72
2024/03/11 10:58:42;;;;;;;3.90;1.88;;;16.40;50.50;;;;;;6298831;28;20020;-74
2024/03/11 11:01:51;;;;;;;2.15;1.40;;;16.30;50.70;;;;;;6272511;28;20020;-73
2024/03/11 11:04:55;;;;;;;5.35;1.70;;;16.30;50.80;;;;;;6305520;28;20137;-73
2024/03/11 11:08:02;;;;;;;4.57;1.77;;;16.30;50.60;;;;;;6305676;28;20059;-74
2024/03/11 11:11:05;;;;;;;3.00;1.15;;;16.30;50.60;;;;;;6305173;28;20120;-75
2024/03/11 11:14:11;;;;;;;3.00;1.27;;;16.20;50.70;;;;;;6305986;28;20385;-73
2024/03/11 11:17:17;;;;;;;3.88;1.40;;;16.20;50.90;;;;;;6304032;28;20332;-73
2024/03/11 11:20:30;;;;;;;6.43;1.75;;;16.20;51.00;;;;;;6295736;28;20569;-75
2024/03/11 11:23:34;;;;;;;5.00;1.50;;;16.10;51.10;;;;;;6290948;28;20058;-73
2024/03/11 11:26:42;;;;;;;2.22;1.08;;;16.00;51.30;;;;;;6305258;28;20069;-73
2024/03/11 11:29:43;;;;;;;2.30;1.02;;;15.90;51.80;;;;;;6299467;28;20077;-74
2024/03/11 11:32:44;;;;;;;3.20;1.23;;;15.90;51.30;;;;;;6287355;28;20666;-73
2024/03/11 11:35:45;;;;;;;2.00;0.80;;;15.90;51.30;;;;;;6306408;28;20160;-73
2024/03/11 11:38:46;;;;;;;1.27;0.85;;;15.80;51.20;;;;;;6304564;28;20413;-73
2024/03/11 11:41:49;;;;;;;0.40;0.35;;;15.70;51.10;;;;;;6309501;28;20039;-72
2024/03/11 11:44:51;;;;;;;1.25;0.75;;;15.80;50.90;;;;;;6289872;28;20048;-73
2024/03/11 11:47:53;;;;;;;1.75;0.90;;;15.90;50.50;;;;;;6309602;28;20056;-74
2024/03/11 11:50:58;;;;;;;3.58;1.15;;;15.90;50.00;;;;;;6311099;28;20129;-73
2024/03/11 11:54:36;;;;;;;1.58;0.43;;;16.00;49.80;;;;;;6288172;28;20121;-73
2024/03/11 11:57:37;;;;;;;0.50;0.50;;;16.10;49.40;;;;;;6287970;28;20028;-75
2024/03/11 12:00:43;;;;;;;0.50;0.30;;;16.10;48.80;;;;;;6291842;28;20024;-74
2024/03/11 12:03:44;;;;;;;0.57;0.43;;;16.20;48.70;;;;;;6306983;28;20551;-72
2024/03/11 12:06:49;;;;;;;0.40;0.40;;;16.20;48.30;;;;;;6309165;28;20024;-73
2024/03/11 12:10:04;;;;;;;5.80;0.50;;;16.30;48.10;;;;;;6288839;28;20468;-74
2024/03/11 12:13:16;;;;;;;0.40;0.40;;;16.40;47.20;;;;;;6298918;28;20020;-73
2024/03/11 12:16:24;;;;;;;1.92;0.50;;;16.40;47.20;;;;;;6280181;28;20104;-74
2024/03/11 12:19:26;;;;;;;1.90;0.52;;;16.50;47.00;;;;;;6308863;28;20032;-75
2024/03/11 12:22:26;;;;;;;2.33;0.70;;;16.60;47.00;;;;;;6309612;28;20051;-74
2024/03/11 12:25:32;;;;;;;2.45;0.57;;;16.70;46.90;;;;;;6304577;28;20028;-74
2024/03/11 12:28:33;;;;;;;1.40;0.65;;;16.80;46.80;;;;;;6308561;28;20337;-74
2024/03/11 12:31:36;;;;;;;1.15;0.55;;;17.00;46.90;;;;;;6308514;28;20063;-73
2024/03/11 12:34:44;;;;;;;0.65;0.60;;;17.20;46.40;;;;;;6290353;28;20047;-73
2024/03/11 12:37:45;;;;;;;0.33;0.30;;;17.30;46.00;;;;;;6308189;28;20036;-74
2024/03/11 12:40:46;;;;;;;0.47;0.35;;;17.80;45.90;;;;;;6309709;28;20012;-74
2024/03/11 12:43:47;;;;;;;0.90;0.60;;;18.60;44.40;;;;;;6307670;28;20071;-74
2024/03/11 12:46:55;;;;;;;0.45;0.30;;;19.60;42.60;;;;;;6282562;28;20032;-74
2024/03/11 12:49:58;;;;;;;1.50;0.50;;;20.20;40.70;;;;;;6303265;28;20044;-73
2024/03/11 12:53:02;;;;;;;1.38;0.70;;;21.20;39.70;;;;;;6308825;28;20055;-74
2024/03/11 12:56:07;;;;;;;1.13;0.70;;;22.10;38.10;;;;;;6301806;28;20500;-74
2024/03/11 12:59:13;;;;;;;4.10;0.70;;;22.90;36.70;;;;;;6307279;28;20035;-75
2024/03/11 13:02:21;;;;;;;1.05;0.63;;;23.40;35.20;;;;;;6291513;28;20051;-74
2024/03/11 13:05:23;;;;;;;1.75;0.55;;;23.80;34.40;;;;;;6305741;28;20410;-74
2024/03/11 13:08:24;;;;;;;0.93;0.50;;;24.10;33.70;;;;;;6322343;28;20377;-73
2024/03/11 13:11:25;;;;;;;0.77;0.60;;;24.10;33.20;;;;;;6273680;28;20040;-74
2024/03/11 13:14:30;;;;;;;5.03;0.70;;;23.40;33.70;;;;;;6308806;28;20016;-73
2024/03/11 13:17:32;;;;;;;1.70;0.70;;;22.60;34.60;;;;;;6298862;28;20036;-73
2024/03/11 13:20:39;;;;;;;1.65;0.60;;;21.90;35.80;;;;;;6289727;28;20081;-74
2024/03/11 13:23:42;;;;;;;1.90;0.60;;;21.30;36.40;;;;;;6308258;28;20125;-73
2024/03/11 13:26:44;;;;;;;1.40;0.80;;;20.90;37.00;;;;;;6307633;28;20070;-74
2024/03/11 13:29:46;;;;;;;0.60;0.50;;;20.70;37.50;;;;;;6304274;28;20400;-74
2024/03/11 13:32:47;;;;;;;1.63;0.70;;;20.50;37.70;;;;;;6306798;28;20053;-74
2024/03/11 13:35:49;;;;;;;4.78;0.90;;;20.30;37.90;;;;;;6306327;28;20498;-73
2024/03/11 13:38:51;;;;;;;0.98;0.77;;;19.90;38.20;;;;;;6299678;28;20032;-74
2024/03/11 13:41:52;;;;;;;1.00;0.63;;;19.50;38.60;;;;;;6306747;28;20087;-73
2024/03/11 13:44:54;;;;;;;0.93;0.55;;;19.10;39.30;;;;;;6306781;28;20067;-74
2024/03/11 13:47:56;;;;;;;2.88;0.80;;;18.80;39.70;;;;;;6306460;28;20381;-73
2024/03/11 13:50:58;;;;;;;1.65;0.82;;;18.60;40.20;;;;;;6305948;28;20488;-75
2024/03/11 13:53:58;;;;;;;1.75;1.05;;;18.40;40.60;;;;;;6306939;28;20445;-73
2024/03/11 13:57:00;;;;;;;1.40;0.70;;;18.20;41.10;;;;;;6306529;28;20032;-73
2024/03/11 14:00:01;;;;;;;1.38;0.80;;;18.00;41.60;;;;;;6304897;28;20031;-75
2024/03/11 14:03:02;;;;;;;1.98;0.90;;;17.80;42.10;;;;;;6289183;28;20184;-73
2024/03/11 14:06:03;;;;;;;3.10;1.30;;;17.60;42.60;;;;;;6306204;28;20027;-72
2024/03/11 14:09:09;;;;;;;4.45;1.52;;;17.50;42.90;;;;;;6298441;28;20099;-74
2024/03/11 14:12:11;;;;;;;3.38;1.52;;;17.40;43.50;;;;;;6306407;28;20171;-73
2024/03/11 14:15:13;;;;;;;2.35;1.10;;;17.20;44.60;;;;;;6307652;28;20130;-73
2024/03/11 14:18:14;;;;;;;1.15;0.90;;;17.10;46.20;;;;;;6289188;28;20032;-74
2024/03/11 14:21:16;;;;;;;0.52;0.52;;;17.00;46.00;;;;;;6302910;28;20060;-73
2024/03/11 14:24:19;;;;;;;1.17;0.77;;;17.00;46.20;;;;;;6289798;28;20042;-74
2024/03/11 14:27:21;;;;;;;4.65;0.90;;;16.90;46.20;;;;;;6307188;28;20028;-74
2024/03/11 14:30:24;;;;;;;1.23;1.02;;;16.90;46.30;;;;;;6279189;28;20138;-74
2024/03/11 14:33:26;;;;;;;3.92;1.20;;;16.80;46.40;;;;;;6320023;28;20107;-74
2024/03/11 14:36:28;;;;;;;1.98;1.27;;;16.80;46.50;;;;;;6289609;28;20149;-74
2024/03/11 14:39:32;;;;;;;1.55;1.10;;;16.80;46.50;;;;;;6286114;28;20087;-75
2024/03/11 14:42:36;;;;;;;2.00;1.40;;;16.70;46.50;;;;;;6271689;28;20024;-74
2024/03/11 14:45:38;;;;;;;2.05;1.45;;;16.70;46.50;;;;;;6305196;28;20444;-73
2024/03/11 14:48:46;;;;;;;3.55;1.20;;;16.70;46.50;;;;;;6305426;28;20024;-74
2024/03/11 14:51:49;;;;;;;1.38;1.27;;;16.70;46.60;;;;;;6277630;28;20047;-73
2024/03/11 14:54:50;;;;;;;3.72;1.50;;;16.60;46.70;;;;;;6289093;28;20024;-74
2024/03/11 14:57:51;;;;;;;2.33;1.38;;;16.60;46.90;;;;;;6305251;28;20363;-72
2024/03/11 15:00:57;;;;;;;2.60;1.40;;;16.70;46.90;;;;;;6301973;28;20089;-74
2024/03/11 15:03:59;;;;;;;3.30;1.73;;;16.80;47.10;;;;;;6303864;28;20516;-73
2024/03/11 15:07:00;;;;;;;3.20;1.50;;;16.80;47.00;;;;;;6307596;28;20157;-73
2024/03/11 15:10:04;;;;;;;9.65;1.80;;;16.80;47.10;;;;;;6307481;28;20032;-73
2024/03/11 15:13:08;;;;;;;2.15;1.67;;;16.90;47.20;;;;;;6308429;28;20063;-74
2024/03/11 15:16:16;;;;;;;3.15;1.52;;;17.00;47.10;;;;;;6296096;28;20031;-72
2024/03/11 15:19:18;;;;;;;1.90;1.27;;;16.90;47.30;;;;;;6310006;28;20127;-74
2024/03/11 15:22:19;;;;;;;3.47;1.45;;;16.90;47.50;;;;;;6309569;28;20668;-74
2024/03/11 15:25:24;;;;;;;2.55;1.77;;;16.80;47.70;;;;;;6310616;28;20119;-74
2024/03/11 15:28:25;;;;;;;3.45;1.40;;;16.90;47.80;;;;;;6312528;28;20103;-72
2024/03/11 15:31:28;;;;;;;3.28;1.88;;;16.90;48.00;;;;;;6293500;28;20077;-73
2024/03/11 15:34:29;;;;;;;11.38;1.60;;;16.60;48.20;;;;;;6310371;28;20027;-75
2024/03/11 15:37:30;;;;;;;2.05;1.48;;;16.50;48.60;;;;;;6312215;28;20409;-74
2024/03/11 15:40:30;;;;;;;2.92;1.50;;;16.50;48.80;;;;;;6311082;28;20069;-76
2024/03/11 15:43:33;;;;;;;2.08;1.73;;;16.40;49.00;;;;;;6309639;28;20414;-73
2024/03/11 15:46:34;;;;;;;3.30;1.60;;;16.30;49.30;;;;;;6289496;28;20033;-74
2024/03/11 15:49:36;;;;;;;3.83;1.63;;;16.20;49.60;;;;;;6303596;28;20032;-73
2024/03/11 15:52:37;;;;;;;5.30;1.60;;;16.10;50.10;;;;;;6274356;28;20114;-73
2024/03/11 15:55:38;;;;;;;7.57;1.80;;;16.00;50.40;;;;;;6302714;28;20798;-72
2024/03/11 15:58:40;;;;;;;3.88;2.00;;;15.80;50.60;;;;;;6294667;28;20099;-74
2024/03/11 16:01:41;;;;;;;3.38;1.75;;;15.80;51.00;;;;;;6308062;28;20030;-74
2024/03/11 16:04:42;;;;;;;2.00;1.50;;;15.70;51.30;;;;;;6309070;28;20035;-73